Cupar, Canada
Current Conditions -  °F | °C
As of 7:00 PM on Tuesday 27 Jan 2015 (Local Time) from CYQR Reporting Station
Broken Clouds Broken Clouds  
Wind Chill: 22°   Ceiling: 19000
Heat Index: 28°   Visibility: 15mi
Dew Point: 27°   Wind: 6mph
Humidity: 93%   Direction: 180°S
Pressure: 29.79"   Gusts: NA
Location:  50.95°N, 104.2°W
Report Text: CYQR 280100Z 18005KT 15SM BKN190 M02/M03 A2979 RMK CI7 SLP118
Loading
Personal Weather Stations






























Interactive Weather Map New forecast layout! Learn more

10-Day Weather Forecast

Advertisements
Track Severe Weather on mobile